Terminal Aerodrome Forecast
Issued by NWS Pendleton, OR

Home | Current Version | Previous Version | Text Only | Print | Product List | Glossary On
Versions: 1 2 3 4 5 6 7 8 9 10 11 12 13 14 15 16 17 18
000
FTUS46 KPDT 241141
TAFPDT
TAF
KPDT 241141Z 2412/2512 18008KT P6SM FEW100 SCT120
     FM242100 29009KT P6SM SCT080 SCT250
     FM250100 28008KT P6SM FEW080 SCT120
     FM250600 24006KT P6SM SCT200=

USA.gov is the U.S. government's official web portal to all federal, state and local government web resources and services.